createdAt,value
2022-10-20T00:00:58.411Z,101705.53
2022-10-20T00:06:18.716Z,101704.69
2022-10-20T00:11:25.370Z,101706.61
2022-10-20T00:16:34.638Z,101711.77
2022-10-20T00:21:40.696Z,101713.61
2022-10-20T00:26:46.465Z,101711.81
2022-10-20T00:31:52.369Z,101710.94
2022-10-20T00:36:58.270Z,101710.08
2022-10-20T00:42:05.365Z,101712.50
2022-10-20T00:47:14.412Z,101713.03
2022-10-20T00:52:22.559Z,101713.77
2022-10-20T00:57:29.755Z,101708.73
2022-10-20T01:02:36.012Z,101707.54
2022-10-20T01:07:42.294Z,101704.92
2022-10-20T01:12:53.732Z,101701.80
2022-10-20T01:18:08.745Z,101703.64
2022-10-20T01:23:38.043Z,101707.28
2022-10-20T01:28:51.880Z,101712.77
2022-10-20T01:34:05.133Z,101710.38
2022-10-20T01:39:16.690Z,101714.36
2022-10-20T01:44:26.446Z,101711.40
2022-10-20T01:49:32.422Z,101710.01
2022-10-20T01:54:38.685Z,101713.24
2022-10-20T02:00:01.464Z,101705.80
2022-10-20T02:05:32.740Z,101704.48
2022-10-20T02:10:45.021Z,101702.94
2022-10-20T02:15:54.288Z,101701.06
2022-10-20T02:21:03.600Z,101696.81
2022-10-20T02:26:13.930Z,101696.66
2022-10-20T02:31:20.426Z,101692.98
2022-10-20T02:36:29.561Z,101693.96
2022-10-20T02:41:35.906Z,101697.21
2022-10-20T02:46:41.765Z,101696.09
2022-10-20T02:51:47.712Z,101697.69
2022-10-20T02:56:53.439Z,101702.57
2022-10-20T03:01:59.262Z,101703.69
2022-10-20T03:07:05.215Z,101705.31
2022-10-20T03:12:11.155Z,101704.84
2022-10-20T03:17:16.905Z,101707.81
2022-10-20T03:22:22.849Z,101704.55
2022-10-20T03:27:28.552Z,101711.02
2022-10-20T03:32:35.015Z,101709.39
2022-10-20T03:37:41.367Z,101713.09
2022-10-20T03:42:47.321Z,101719.31
2022-10-20T03:47:53.082Z,101725.55
2022-10-20T03:52:58.919Z,101729.52
2022-10-20T03:58:04.794Z,101731.44
2022-10-20T04:03:10.639Z,101737.70
2022-10-20T04:08:16.436Z,101741.29
2022-10-20T04:13:22.240Z,101743.46
2022-10-20T04:18:28.093Z,101749.93
2022-10-20T04:23:33.887Z,101745.01
2022-10-20T04:28:40.103Z,101744.12
2022-10-20T04:33:46.155Z,101744.23
2022-10-20T04:38:52.083Z,101743.91
2022-10-20T04:43:57.946Z,101746.83
2022-10-20T04:49:04.226Z,101752.05
2022-10-20T04:54:10.066Z,101758.77
2022-10-20T04:59:15.851Z,101763.38
2022-10-20T05:04:22.002Z,101765.20
2022-10-20T05:09:27.944Z,101764.55
2022-10-20T05:14:33.812Z,101764.56
2022-10-20T05:19:39.569Z,101764.29
2022-10-20T05:24:45.595Z,101764.66
2022-10-20T05:29:51.517Z,101768.39
2022-10-20T05:34:57.298Z,101775.67
2022-10-20T05:40:03.711Z,101780.83
2022-10-20T05:45:11.212Z,101788.30
2022-10-20T05:50:17.166Z,101792.16
2022-10-20T05:55:23.021Z,101799.80
2022-10-20T06:00:31.328Z,101803.77
2022-10-20T06:05:37.168Z,101804.69
2022-10-20T06:10:42.908Z,101802.09
2022-10-20T06:15:49.234Z,101805.11
2022-10-20T06:21:03.132Z,101809.77
2022-10-20T06:26:11.075Z,101809.98
2022-10-20T06:31:18.710Z,101810.73
2022-10-20T06:36:25.231Z,101810.85
2022-10-20T06:41:31.645Z,101815.17
2022-10-20T06:46:38.587Z,101820.90
2022-10-20T06:51:44.588Z,101829.00
2022-10-20T06:56:50.701Z,101835.02
2022-10-20T07:01:56.718Z,101842.51
2022-10-20T07:07:02.509Z,101846.34
2022-10-20T07:12:08.374Z,101851.43
2022-10-20T07:17:14.407Z,101852.20
2022-10-20T07:22:20.125Z,101857.42
2022-10-20T07:27:25.864Z,101854.77
2022-10-20T07:32:32.305Z,101852.20
2022-10-20T07:37:38.724Z,101854.63
2022-10-20T07:42:44.692Z,101854.52
2022-10-20T07:47:51.021Z,101852.30
2022-10-20T07:52:57.113Z,101856.22
2022-10-20T07:58:02.905Z,101858.02
2022-10-20T08:03:10.857Z,101859.74
2022-10-20T08:08:16.823Z,101860.52
2022-10-20T08:13:22.723Z,101860.33
2022-10-20T08:18:30.215Z,101861.48
2022-10-20T08:23:37.625Z,101865.75
2022-10-20T08:28:43.337Z,101867.04
2022-10-20T08:33:52.550Z,101869.38
2022-10-20T08:39:03.563Z,101871.55
2022-10-20T08:44:18.303Z,101871.27
2022-10-20T08:49:29.346Z,101868.96
2022-10-20T08:54:35.916Z,101869.11
2022-10-20T08:59:41.664Z,101866.17
2022-10-20T09:04:52.363Z,101861.28
2022-10-20T09:10:07.799Z,101853.87
2022-10-20T09:15:15.837Z,101860.86
2022-10-20T09:20:25.821Z,101859.23
2022-10-20T09:25:32.256Z,101854.77
2022-10-20T09:30:38.659Z,101858.83
2022-10-20T09:35:49.284Z,101860.55
2022-10-20T09:40:58.716Z,101857.12
2022-10-20T09:46:07.611Z,101853.16
2022-10-20T09:51:18.722Z,101846.54
2022-10-20T09:56:33.410Z,101839.26
2022-10-20T10:01:55.009Z,101843.50
2022-10-20T10:07:01.148Z,101839.39
2022-10-20T10:12:19.706Z,101839.48
2022-10-20T10:17:34.108Z,101838.98
2022-10-20T10:22:40.847Z,101837.55
2022-10-20T10:28:00.732Z,101832.73
2022-10-20T10:33:26.501Z,101828.23
2022-10-20T10:38:32.456Z,101828.11
2022-10-20T10:43:48.765Z,101819.56
2022-10-20T10:49:24.109Z,101815.33
2022-10-20T10:54:47.083Z,101817.66
2022-10-20T10:59:54.841Z,101816.73
2022-10-20T11:05:21.990Z,101812.96
2022-10-20T11:10:36.785Z,101802.52
2022-10-20T11:15:52.042Z,101803.14
2022-10-20T11:21:08.860Z,101790.48
2022-10-20T11:26:24.263Z,101780.45
2022-10-20T11:31:34.621Z,101775.65
2022-10-20T11:36:45.155Z,101768.48
2022-10-20T11:41:56.881Z,101763.60
2022-10-20T11:47:07.695Z,101756.40
2022-10-20T11:52:49.498Z,101749.30
2022-10-20T11:58:10.758Z,101747.98
2022-10-20T12:03:38.355Z,101742.12
2022-10-20T12:09:00.223Z,101737.42
2022-10-20T12:14:19.282Z,101740.86
2022-10-20T12:19:26.837Z,101736.68
2022-10-20T12:24:38.060Z,101733.89
2022-10-20T12:30:02.165Z,101733.58
2022-10-20T12:35:53.121Z,101725.42
2022-10-20T12:41:01.244Z,101723.45
2022-10-20T12:46:16.276Z,101722.77
2022-10-20T12:51:33.923Z,101717.40
2022-10-20T12:56:42.192Z,101717.70
2022-10-20T13:02:29.418Z,101716.84
2022-10-20T13:08:00.454Z,101716.11
2022-10-20T13:13:41.348Z,101705.98
2022-10-20T13:18:51.549Z,101702.27
2022-10-20T13:24:03.428Z,101706.64
2022-10-20T13:29:17.947Z,101708.55
2022-10-20T13:34:30.393Z,101705.48
2022-10-20T13:39:47.960Z,101706.42
2022-10-20T13:45:03.863Z,101704.95
2022-10-20T13:50:13.830Z,101704.57
2022-10-20T13:55:22.775Z,101701.60
2022-10-20T14:00:31.290Z,101694.77
2022-10-20T14:05:40.351Z,101691.00
2022-10-20T14:10:51.788Z,101688.02
2022-10-20T14:15:59.164Z,101686.88
2022-10-20T14:21:08.504Z,101686.43
2022-10-20T14:26:16.204Z,101683.36
2022-10-20T14:31:24.839Z,101678.92
2022-10-20T14:36:31.464Z,101678.81
2022-10-20T14:41:37.595Z,101674.55
2022-10-20T14:46:47.953Z,101676.33
2022-10-20T14:51:59.010Z,101669.11
2022-10-20T14:57:37.808Z,101663.63
2022-10-20T15:02:45.789Z,101661.27
2022-10-20T15:07:51.950Z,101656.79
2022-10-20T15:12:57.938Z,101649.54
2022-10-20T15:18:16.408Z,101643.32
2022-10-20T15:23:24.174Z,101640.23
2022-10-20T15:28:47.017Z,101639.77
2022-10-20T15:33:53.459Z,101638.23
2022-10-20T15:38:59.834Z,101637.73
2022-10-20T15:44:13.258Z,101641.55
2022-10-20T15:49:19.424Z,101642.80
2022-10-20T15:54:25.404Z,101648.86
2022-10-20T15:59:31.384Z,101645.75
2022-10-20T16:04:37.150Z,101641.78
2022-10-20T16:09:43.221Z,101641.08
2022-10-20T16:14:49.133Z,101646.64
2022-10-20T16:19:54.954Z,101646.80
2022-10-20T16:25:01.529Z,101649.92
2022-10-20T16:30:09.797Z,101650.98
2022-10-20T16:35:15.725Z,101650.11
2022-10-20T16:40:21.732Z,101655.80
2022-10-20T16:45:27.673Z,101656.67
2022-10-20T16:50:33.883Z,101656.50
2022-10-20T16:55:40.080Z,101658.39
2022-10-20T17:00:45.887Z,101655.23
2022-10-20T17:05:58.101Z,101651.92
2022-10-20T17:11:06.605Z,101652.08
2022-10-20T17:16:14.938Z,101653.12
2022-10-20T17:21:21.178Z,101649.66
2022-10-20T17:26:32.851Z,101652.23
2022-10-20T17:31:39.130Z,101655.88
2022-10-20T17:36:44.960Z,101649.63
2022-10-20T17:41:50.897Z,101649.77
2022-10-20T17:46:58.732Z,101652.35
2022-10-20T17:52:04.842Z,101651.12
2022-10-20T17:57:10.832Z,101648.69
2022-10-20T18:02:16.787Z,101649.20
2022-10-20T18:07:22.686Z,101648.79
2022-10-20T18:12:28.495Z,101645.96
2022-10-20T18:17:34.748Z,101639.48
2022-10-20T18:22:40.675Z,101642.52
2022-10-20T18:27:46.559Z,101641.02
2022-10-20T18:32:52.632Z,101634.44
2022-10-20T18:37:58.306Z,101640.27
2022-10-20T18:43:04.172Z,101650.14
2022-10-20T18:48:10.000Z,101647.83
2022-10-20T18:53:15.740Z,101649.88
2022-10-20T18:58:21.460Z,101649.80
2022-10-20T19:03:31.150Z,101651.85
2022-10-20T19:08:38.632Z,101652.02
2022-10-20T19:13:44.457Z,101650.73
2022-10-20T19:18:52.178Z,101650.61
2022-10-20T19:24:01.264Z,101652.81
2022-10-20T19:29:09.677Z,101656.85
2022-10-20T19:34:19.268Z,101657.05
2022-10-20T19:39:27.538Z,101658.94
2022-10-20T19:44:34.219Z,101657.54
2022-10-20T19:49:40.962Z,101651.62
2022-10-20T19:54:46.706Z,101652.52
2022-10-20T19:59:52.897Z,101653.70
2022-10-20T20:04:58.668Z,101639.10
2022-10-20T20:10:05.872Z,101632.86
2022-10-20T20:15:11.676Z,101632.23
2022-10-20T20:20:17.738Z,101630.05
2022-10-20T20:25:23.539Z,101630.49
2022-10-20T20:30:29.251Z,101626.77
2022-10-20T20:35:35.171Z,101618.34
2022-10-20T20:40:46.456Z,101618.48
2022-10-20T20:45:52.311Z,101619.29
2022-10-20T20:51:00.520Z,101611.65
2022-10-20T20:56:08.665Z,101611.38
2022-10-20T21:01:16.829Z,101603.52
2022-10-20T21:06:28.771Z,101599.73
2022-10-20T21:11:39.888Z,101598.48
2022-10-20T21:16:46.185Z,101594.50
2022-10-20T21:21:57.209Z,101595.64
2022-10-20T21:27:03.578Z,101597.05
2022-10-20T21:32:09.254Z,101586.02
2022-10-20T21:37:15.015Z,101578.10
2022-10-20T21:42:21.016Z,101572.92
2022-10-20T21:47:26.824Z,101568.17
2022-10-20T21:52:32.662Z,101569.99
2022-10-20T21:57:38.703Z,101567.52
2022-10-20T22:02:47.690Z,101563.25
2022-10-20T22:07:53.471Z,101565.92
2022-10-20T22:12:59.237Z,101559.05
2022-10-20T22:18:05.678Z,101556.03
2022-10-20T22:23:11.487Z,101557.20
2022-10-20T22:28:17.367Z,101554.45
2022-10-20T22:33:23.570Z,101547.50
2022-10-20T22:38:29.309Z,101532.20
2022-10-20T22:43:35.075Z,101518.46
2022-10-20T22:48:41.010Z,101513.02
2022-10-20T22:53:46.756Z,101513.66
2022-10-20T22:58:54.001Z,101512.08
2022-10-20T23:03:59.819Z,101505.33
2022-10-20T23:09:06.133Z,101494.45
2022-10-20T23:14:12.985Z,101504.01
2022-10-20T23:19:18.835Z,101502.62
2022-10-20T23:24:24.667Z,101508.70
2022-10-20T23:29:30.973Z,101507.80
2022-10-20T23:34:37.685Z,101497.45
2022-10-20T23:39:43.451Z,101499.16
2022-10-20T23:44:49.183Z,101503.67
2022-10-20T23:49:55.119Z,101508.65
2022-10-20T23:55:00.842Z,101503.98
